createdAt,value
2019-03-31T00:02:05.218Z,24.70
2019-03-31T00:04:33.604Z,25.67
2019-03-31T00:07:02.097Z,25.93
2019-03-31T00:09:30.517Z,26.77
2019-03-31T00:11:59.003Z,25.30
2019-03-31T00:14:27.451Z,28.57
2019-03-31T00:16:55.994Z,26.73
2019-03-31T00:19:24.454Z,28.53
2019-03-31T00:21:52.870Z,28.90
2019-03-31T00:24:21.272Z,33.60
2019-03-31T00:26:49.774Z,28.70
2019-03-31T00:29:18.170Z,26.87
2019-03-31T00:31:46.616Z,24.83
2019-03-31T00:34:15.039Z,26.13
2019-03-31T00:36:43.457Z,26.90
2019-03-31T00:39:11.958Z,30.47
2019-03-31T00:41:40.383Z,25.67
2019-03-31T00:44:08.971Z,30.43
2019-03-31T00:46:37.384Z,28.47
2019-03-31T00:49:05.812Z,23.40
2019-03-31T00:51:34.216Z,26.17
2019-03-31T00:54:02.711Z,25.90
2019-03-31T00:56:31.144Z,23.50
2019-03-31T00:58:59.578Z,29.70
2019-03-31T01:01:36.412Z,24.10
2019-03-31T01:04:00.023Z,23.70
2019-03-31T01:06:29.131Z,28.47
2019-03-31T01:08:58.148Z,25.90
2019-03-31T01:11:28.117Z,29.33
2019-03-31T01:13:56.762Z,24.30
2019-03-31T01:16:26.314Z,25.63
2019-03-31T01:18:54.930Z,26.60
2019-03-31T01:21:23.359Z,28.17
2019-03-31T01:23:51.880Z,27.90
2019-03-31T01:26:20.999Z,25.87
2019-03-31T01:28:49.783Z,25.10
2019-03-31T01:31:18.341Z,30.43
2019-03-31T01:33:46.829Z,26.47
2019-03-31T01:36:15.419Z,24.70
2019-03-31T01:38:43.902Z,30.37
2019-03-31T01:41:13.523Z,32.77
2019-03-31T01:43:41.935Z,24.60
2019-03-31T01:46:12.003Z,27.93
2019-03-31T01:48:40.459Z,26.60
2019-03-31T01:51:09.128Z,28.57
2019-03-31T01:53:37.549Z,24.47
2019-03-31T01:56:05.978Z,25.37
2019-03-31T01:58:34.730Z,24.60
2019-03-31T02:01:07.625Z,29.67
2019-03-31T02:03:36.027Z,28.00
2019-03-31T02:06:04.591Z,24.73
2019-03-31T02:08:32.995Z,26.37
2019-03-31T02:11:01.500Z,29.13
2019-03-31T02:13:29.933Z,31.47
2019-03-31T02:15:58.366Z,26.53
2019-03-31T02:18:26.841Z,24.70
2019-03-31T02:20:55.363Z,30.97
2019-03-31T02:23:23.758Z,31.43
2019-03-31T02:25:52.290Z,32.60
2019-03-31T02:28:20.731Z,27.53
2019-03-31T02:30:49.156Z,22.33
2019-03-31T02:33:17.597Z,30.23
2019-03-31T02:35:46.133Z,28.53
2019-03-31T02:38:14.671Z,30.20
2019-03-31T02:40:43.109Z,28.87
2019-03-31T02:43:11.514Z,28.57
2019-03-31T02:45:39.914Z,28.97
2019-03-31T02:48:08.342Z,30.93
2019-03-31T02:50:45.480Z,33.20
2019-03-31T02:53:14.763Z,27.43
2019-03-31T02:55:44.797Z,27.60
2019-03-31T02:58:14.935Z,29.20
2019-03-31T03:00:43.510Z,26.17
2019-03-31T03:03:13.497Z,35.03
2019-03-31T03:05:43.075Z,27.07
2019-03-31T03:08:12.941Z,32.77
2019-03-31T03:10:43.551Z,30.10
2019-03-31T03:13:14.293Z,26.17
2019-03-31T03:15:51.518Z,29.63
2019-03-31T03:18:19.955Z,34.07
2019-03-31T03:20:48.388Z,28.80
2019-03-31T03:23:16.773Z,31.47
2019-03-31T03:25:55.691Z,29.47
2019-03-31T03:28:15.356Z,30.13
2019-03-31T03:30:44.062Z,28.80
2019-03-31T03:33:16.312Z,27.40
2019-03-31T03:35:42.645Z,27.90
2019-03-31T03:38:11.092Z,30.30
2019-03-31T03:40:39.476Z,32.80
2019-03-31T03:43:07.884Z,29.10
2019-03-31T03:45:36.490Z,33.10
2019-03-31T03:48:04.942Z,31.67
2019-03-31T03:50:33.367Z,31.53
2019-03-31T03:53:01.780Z,32.00
2019-03-31T03:55:30.208Z,31.33
2019-03-31T03:57:58.619Z,28.50
2019-03-31T04:00:27.048Z,28.57
2019-03-31T04:02:55.439Z,30.67
2019-03-31T04:05:23.859Z,31.70
2019-03-31T04:07:52.299Z,36.43
2019-03-31T04:10:40.359Z,29.60
2019-03-31T04:13:08.755Z,50.67
2019-03-31T04:15:37.147Z,43.30
2019-03-31T04:18:05.579Z,46.27
2019-03-31T04:20:34.048Z,49.30
2019-03-31T04:23:02.471Z,43.27
2019-03-31T04:25:30.900Z,58.40
2019-03-31T04:27:59.389Z,51.20
2019-03-31T04:30:27.851Z,82.03
2019-03-31T04:32:56.312Z,86.50
2019-03-31T04:35:24.746Z,81.60
2019-03-31T04:37:53.150Z,89.90
2019-03-31T04:40:21.576Z,99.27
2019-03-31T04:42:49.970Z,96.63
2019-03-31T04:45:18.382Z,104.40
2019-03-31T04:47:46.818Z,96.80
2019-03-31T04:50:15.322Z,103.33
2019-03-31T04:52:43.766Z,105.00
2019-03-31T04:55:12.181Z,104.33
2019-03-31T04:57:40.615Z,98.17
2019-03-31T05:00:09.241Z,103.13
2019-03-31T05:02:37.650Z,114.87
2019-03-31T05:05:06.235Z,113.73
2019-03-31T05:07:34.742Z,112.07
2019-03-31T05:10:04.216Z,100.63
2019-03-31T05:12:32.641Z,101.87
2019-03-31T05:15:01.068Z,94.17
2019-03-31T05:17:29.498Z,106.97
2019-03-31T05:19:57.938Z,102.67
2019-03-31T05:22:26.349Z,105.67
2019-03-31T05:24:54.821Z,103.37
2019-03-31T05:27:23.263Z,99.87
2019-03-31T05:29:51.655Z,106.17
2019-03-31T05:32:20.087Z,98.67
2019-03-31T05:34:48.488Z,102.20
2019-03-31T05:37:16.912Z,109.40
2019-03-31T05:39:45.414Z,97.27
2019-03-31T05:42:13.848Z,103.67
2019-03-31T05:44:42.261Z,109.13
2019-03-31T05:47:10.743Z,102.33
2019-03-31T05:49:39.163Z,105.13
2019-03-31T05:52:07.600Z,106.00
2019-03-31T05:54:36.017Z,100.53
2019-03-31T05:57:04.591Z,109.43
2019-03-31T05:59:32.992Z,104.63
2019-03-31T06:02:02.079Z,100.03
2019-03-31T06:04:33.340Z,112.27
2019-03-31T06:07:00.726Z,108.10
2019-03-31T06:09:29.224Z,106.13
2019-03-31T06:11:57.639Z,101.57
2019-03-31T06:14:26.056Z,97.83
2019-03-31T06:16:54.534Z,98.13
2019-03-31T06:19:22.955Z,98.83
2019-03-31T06:21:51.375Z,86.40
2019-03-31T06:24:19.770Z,96.30
2019-03-31T06:26:48.252Z,97.63
2019-03-31T06:29:16.637Z,103.93
2019-03-31T06:31:45.072Z,103.37
2019-03-31T06:34:13.482Z,94.47
2019-03-31T06:36:41.871Z,98.67
2019-03-31T06:39:10.391Z,102.73
2019-03-31T06:41:38.783Z,104.73
2019-03-31T06:44:07.225Z,104.53
2019-03-31T06:46:35.613Z,102.40
2019-03-31T06:49:04.023Z,106.13
2019-03-31T06:51:32.444Z,100.63
2019-03-31T06:54:00.856Z,103.20
2019-03-31T06:56:29.270Z,107.80
2019-03-31T06:58:57.670Z,104.50
2019-03-31T07:01:26.170Z,104.90
2019-03-31T07:03:54.660Z,108.13
2019-03-31T07:06:23.095Z,110.53
2019-03-31T07:08:51.510Z,104.83
2019-03-31T07:11:19.917Z,104.00
2019-03-31T07:13:48.345Z,106.23
2019-03-31T07:16:16.774Z,100.20
2019-03-31T07:18:45.181Z,112.60
2019-03-31T07:21:13.612Z,92.10
2019-03-31T07:23:42.055Z,96.97
2019-03-31T07:26:10.539Z,106.40
2019-03-31T07:28:38.930Z,107.83
2019-03-31T07:31:07.355Z,108.13
2019-03-31T07:33:35.792Z,108.63
2019-03-31T07:36:04.193Z,103.40
2019-03-31T07:38:38.795Z,102.60
2019-03-31T07:41:12.439Z,92.43
2019-03-31T07:43:33.923Z,92.37
2019-03-31T07:46:02.368Z,100.97
2019-03-31T07:48:30.793Z,107.10
2019-03-31T07:50:59.231Z,92.10
2019-03-31T07:53:27.683Z,94.07
2019-03-31T07:55:56.109Z,100.27
2019-03-31T07:58:24.526Z,95.40
2019-03-31T08:00:52.948Z,90.17
2019-03-31T08:03:21.391Z,99.80
2019-03-31T08:05:49.911Z,97.90
2019-03-31T08:08:18.351Z,96.40
2019-03-31T08:10:46.765Z,94.77
2019-03-31T08:13:15.172Z,97.40
2019-03-31T08:15:43.574Z,99.30
2019-03-31T08:18:12.024Z,89.73
2019-03-31T08:20:40.432Z,101.40
2019-03-31T08:23:08.839Z,95.27
2019-03-31T08:25:37.267Z,112.13
2019-03-31T08:28:05.748Z,101.67
2019-03-31T08:30:34.260Z,100.70
2019-03-31T08:33:02.702Z,93.10
2019-03-31T08:35:31.125Z,98.90
2019-03-31T08:37:59.564Z,94.40
2019-03-31T08:40:27.946Z,87.90
2019-03-31T08:42:56.378Z,93.00
2019-03-31T08:45:24.940Z,97.30
2019-03-31T08:47:53.337Z,93.90
2019-03-31T08:50:21.751Z,98.80
2019-03-31T08:52:50.453Z,96.03
2019-03-31T08:55:18.854Z,94.53
2019-03-31T08:57:47.297Z,91.23
2019-03-31T09:00:24.247Z,90.50
2019-03-31T09:02:52.671Z,88.40
2019-03-31T09:05:21.137Z,78.57
2019-03-31T09:07:49.584Z,86.77
2019-03-31T09:10:18.063Z,98.87
2019-03-31T09:12:48.413Z,80.40
2019-03-31T09:15:16.720Z,78.80
2019-03-31T09:17:45.120Z,82.17
2019-03-31T09:20:15.063Z,89.30
2019-03-31T09:22:43.491Z,82.30
2019-03-31T09:25:11.957Z,74.07
2019-03-31T09:27:40.500Z,81.53
2019-03-31T09:30:11.145Z,83.07
2019-03-31T09:32:39.808Z,76.53
2019-03-31T09:35:09.270Z,73.00
2019-03-31T09:37:37.906Z,72.33
2019-03-31T09:40:08.858Z,76.50
2019-03-31T09:42:37.430Z,73.73
2019-03-31T09:45:07.279Z,76.07
2019-03-31T09:47:36.158Z,77.50
2019-03-31T09:50:10.764Z,74.83
2019-03-31T09:52:39.234Z,75.57
2019-03-31T09:55:08.602Z,76.87
2019-03-31T09:57:37.074Z,74.43
2019-03-31T10:00:11.545Z,78.40
2019-03-31T10:02:40.019Z,73.97
2019-03-31T10:05:09.180Z,84.10
2019-03-31T10:07:39.136Z,76.47
2019-03-31T10:10:08.984Z,80.67
2019-03-31T10:12:37.384Z,62.07
2019-03-31T10:15:07.728Z,67.57
2019-03-31T10:17:36.210Z,63.10
2019-03-31T10:20:05.958Z,70.67
2019-03-31T10:22:34.464Z,61.20
2019-03-31T10:25:05.502Z,63.47
2019-03-31T10:27:33.260Z,60.23
2019-03-31T10:30:02.971Z,58.27
2019-03-31T10:32:31.450Z,60.47
2019-03-31T10:34:59.895Z,61.70
2019-03-31T10:37:28.289Z,49.93
2019-03-31T10:39:56.935Z,52.57
2019-03-31T10:42:25.421Z,49.77
2019-03-31T10:44:53.916Z,50.20
2019-03-31T10:47:22.323Z,62.03
2019-03-31T10:49:50.759Z,54.97
2019-03-31T10:52:19.168Z,53.20
2019-03-31T10:54:47.575Z,46.70
2019-03-31T10:57:16.294Z,58.50
2019-03-31T10:59:44.686Z,42.47
2019-03-31T11:02:13.070Z,45.30
2019-03-31T11:04:41.574Z,46.77
2019-03-31T11:07:09.965Z,42.57
2019-03-31T11:09:38.575Z,50.40
2019-03-31T11:12:10.439Z,46.90
2019-03-31T11:14:39.055Z,42.23
2019-03-31T11:17:07.445Z,42.87
2019-03-31T11:19:35.897Z,40.67
2019-03-31T11:22:05.968Z,40.93
2019-03-31T11:24:34.376Z,34.60
2019-03-31T11:27:02.831Z,41.80
2019-03-31T11:29:31.281Z,41.23
2019-03-31T11:31:59.721Z,36.90
2019-03-31T11:34:28.221Z,40.37
2019-03-31T11:36:56.739Z,34.57
2019-03-31T11:39:25.140Z,33.50
2019-03-31T11:41:53.560Z,33.53
2019-03-31T11:44:21.980Z,32.13
2019-03-31T11:46:50.419Z,31.23
2019-03-31T11:49:18.917Z,29.90
2019-03-31T11:51:47.326Z,28.70
2019-03-31T11:54:15.765Z,31.70
2019-03-31T11:56:44.215Z,34.43
2019-03-31T11:59:13.616Z,32.20
2019-03-31T12:01:42.165Z,24.33
2019-03-31T12:04:10.641Z,28.97
2019-03-31T12:06:39.198Z,29.10
2019-03-31T12:09:07.912Z,26.37
2019-03-31T12:11:36.368Z,29.70
2019-03-31T12:14:05.289Z,32.73
2019-03-31T12:16:33.826Z,25.80
2019-03-31T12:19:02.241Z,27.10
2019-03-31T12:21:30.755Z,26.57
2019-03-31T12:23:59.246Z,22.00
2019-03-31T12:26:27.659Z,26.83
2019-03-31T12:28:56.075Z,27.43
2019-03-31T12:31:24.509Z,27.63
2019-03-31T12:33:52.937Z,27.20
2019-03-31T12:36:21.517Z,23.57
2019-03-31T12:38:53.591Z,26.50
2019-03-31T12:41:20.146Z,28.90
2019-03-31T12:43:48.574Z,26.40
2019-03-31T12:46:16.982Z,24.93
2019-03-31T12:48:45.409Z,23.63
2019-03-31T12:51:13.815Z,22.23
2019-03-31T12:53:42.222Z,26.43
2019-03-31T12:56:10.627Z,29.93
2019-03-31T12:58:39.062Z,25.23
2019-03-31T13:01:07.565Z,22.90
2019-03-31T13:03:36.002Z,28.67
2019-03-31T13:06:04.411Z,22.60
2019-03-31T13:08:32.849Z,25.93
2019-03-31T13:11:01.258Z,21.00
2019-03-31T13:13:29.666Z,26.47
2019-03-31T13:15:58.180Z,25.80
2019-03-31T13:18:28.178Z,29.03
2019-03-31T13:20:56.866Z,47.50
2019-03-31T13:23:25.277Z,20.40
2019-03-31T13:25:53.849Z,22.27
2019-03-31T13:28:22.278Z,25.10
2019-03-31T13:30:50.750Z,21.60
2019-03-31T13:33:19.190Z,22.67
2019-03-31T13:35:47.719Z,19.80
2019-03-31T13:38:16.158Z,25.50
2019-03-31T13:40:44.565Z,31.43
2019-03-31T13:43:13.087Z,22.77
2019-03-31T13:45:41.550Z,18.47
2019-03-31T13:48:10.096Z,18.93
2019-03-31T13:50:38.484Z,17.33
2019-03-31T13:53:06.904Z,19.50
2019-03-31T13:55:35.473Z,16.90
2019-03-31T13:58:04.943Z,18.50
2019-03-31T14:00:36.505Z,16.13
2019-03-31T14:03:05.320Z,27.83
2019-03-31T14:05:33.741Z,19.27
2019-03-31T14:08:02.165Z,29.40
2019-03-31T14:10:30.576Z,22.23
2019-03-31T14:12:58.978Z,22.13
2019-03-31T14:15:27.482Z,18.67
2019-03-31T14:17:55.900Z,21.00
2019-03-31T14:20:24.314Z,16.27
2019-03-31T14:22:52.751Z,21.30
2019-03-31T14:25:21.162Z,27.00
2019-03-31T14:27:49.639Z,19.23
2019-03-31T14:30:18.214Z,18.60
2019-03-31T14:32:46.622Z,16.33
2019-03-31T14:35:15.101Z,17.77
2019-03-31T14:37:43.617Z,20.83
2019-03-31T14:40:12.090Z,15.30
2019-03-31T14:42:40.573Z,17.43
2019-03-31T14:45:10.668Z,16.17
2019-03-31T14:47:39.178Z,15.10
2019-03-31T14:50:07.915Z,17.40
2019-03-31T14:52:36.312Z,18.83
2019-03-31T14:55:05.596Z,14.10
2019-03-31T14:57:33.992Z,15.97
2019-03-31T15:00:13.850Z,15.27
2019-03-31T15:02:32.618Z,27.70
2019-03-31T15:05:01.023Z,45.00
2019-03-31T15:07:29.472Z,13.93
2019-03-31T15:09:57.898Z,13.53
2019-03-31T15:12:26.310Z,14.23
2019-03-31T15:14:54.792Z,17.27
2019-03-31T15:17:23.233Z,13.57
2019-03-31T15:19:51.668Z,15.07
2019-03-31T15:22:20.081Z,19.50
2019-03-31T15:24:48.526Z,18.53
2019-03-31T15:27:16.953Z,12.10
2019-03-31T15:29:45.424Z,12.57
2019-03-31T15:32:14.029Z,14.77
2019-03-31T15:34:42.593Z,14.43
2019-03-31T15:37:11.246Z,15.50
2019-03-31T15:39:39.732Z,18.87
2019-03-31T15:42:08.160Z,14.57
2019-03-31T15:44:36.569Z,10.40
2019-03-31T15:47:05.000Z,13.70
2019-03-31T15:49:33.422Z,10.27
2019-03-31T15:52:01.844Z,11.07
2019-03-31T15:54:30.270Z,13.13
2019-03-31T15:56:58.688Z,14.60
2019-03-31T15:59:27.248Z,13.93
2019-03-31T16:01:55.863Z,12.90
2019-03-31T16:04:24.471Z,9.83
2019-03-31T16:06:53.165Z,31.07
2019-03-31T16:09:23.522Z,13.23
2019-03-31T16:11:54.082Z,11.93
2019-03-31T16:14:22.077Z,11.37
2019-03-31T16:16:50.484Z,10.30
2019-03-31T16:19:19.041Z,13.93
2019-03-31T16:21:47.442Z,15.70
2019-03-31T16:24:15.911Z,10.17
2019-03-31T16:26:44.383Z,18.27
2019-03-31T16:29:12.785Z,10.73
2019-03-31T16:31:41.215Z,7.90
2019-03-31T16:34:09.620Z,10.50
2019-03-31T16:36:38.053Z,8.90
2019-03-31T16:39:07.219Z,12.33
2019-03-31T16:41:35.600Z,15.37
2019-03-31T16:44:04.034Z,11.00
2019-03-31T16:46:32.494Z,9.60
2019-03-31T16:49:15.873Z,8.27
2019-03-31T16:51:44.448Z,7.70
2019-03-31T16:54:12.981Z,8.33
2019-03-31T16:56:41.402Z,8.10
2019-03-31T16:59:09.850Z,10.20
2019-03-31T17:01:38.314Z,11.20
2019-03-31T17:04:06.802Z,10.93
2019-03-31T17:06:35.221Z,9.47
2019-03-31T17:09:05.692Z,11.80
2019-03-31T17:11:34.272Z,11.00
2019-03-31T17:14:02.670Z,9.93
2019-03-31T17:16:31.211Z,8.70
2019-03-31T17:18:59.641Z,11.37
2019-03-31T17:21:28.054Z,20.83
2019-03-31T17:23:56.538Z,16.97
2019-03-31T17:26:24.946Z,12.60
2019-03-31T17:28:53.374Z,15.80
2019-03-31T17:31:21.798Z,10.40
2019-03-31T17:33:50.197Z,11.90
2019-03-31T17:36:18.693Z,16.47
2019-03-31T17:38:47.092Z,10.30
2019-03-31T17:41:15.565Z,11.90
2019-03-31T17:43:43.980Z,8.50
2019-03-31T17:46:12.399Z,8.93
2019-03-31T17:48:40.821Z,9.13
2019-03-31T17:51:09.218Z,10.13
2019-03-31T17:53:37.643Z,12.00
2019-03-31T17:56:06.147Z,15.07
2019-03-31T17:58:34.548Z,45.13
2019-03-31T18:01:03.033Z,14.13
2019-03-31T18:03:31.457Z,10.07
2019-03-31T18:05:59.876Z,15.90
2019-03-31T18:08:28.413Z,14.00
2019-03-31T18:10:56.835Z,13.20
2019-03-31T18:13:25.354Z,46.03
2019-03-31T18:15:53.768Z,11.00
2019-03-31T18:18:22.171Z,13.23
2019-03-31T18:20:50.582Z,11.10
2019-03-31T18:23:19.066Z,13.03
2019-03-31T18:25:47.507Z,11.90
2019-03-31T18:28:15.910Z,9.90
2019-03-31T18:30:44.350Z,13.43
2019-03-31T18:33:12.752Z,17.53
2019-03-31T18:35:41.171Z,16.53
2019-03-31T18:38:09.606Z,8.80
2019-03-31T18:40:38.489Z,21.53
2019-03-31T18:43:06.955Z,10.50
2019-03-31T18:45:35.486Z,7.90
2019-03-31T18:48:03.892Z,9.10
2019-03-31T18:50:32.314Z,8.63
2019-03-31T18:53:01.018Z,11.33
2019-03-31T18:55:31.084Z,11.17
2019-03-31T18:58:17.518Z,6.67
2019-03-31T19:00:48.030Z,13.70
2019-03-31T19:03:33.108Z,9.40
2019-03-31T19:06:21.050Z,10.80
2019-03-31T19:08:51.110Z,14.73
2019-03-31T19:11:26.665Z,19.63
2019-03-31T19:13:56.857Z,12.10
2019-03-31T19:16:26.998Z,15.40
2019-03-31T19:19:05.904Z,14.37
2019-03-31T19:21:44.727Z,15.60
2019-03-31T19:24:20.657Z,13.50
2019-03-31T19:26:53.175Z,15.63
2019-03-31T19:29:23.259Z,23.10
2019-03-31T19:31:59.242Z,10.00
2019-03-31T19:34:32.368Z,12.27
2019-03-31T19:37:17.686Z,24.10
2019-03-31T19:39:53.408Z,26.60
2019-03-31T19:42:39.654Z,12.03
2019-03-31T19:45:12.656Z,12.93
2019-03-31T19:47:45.428Z,19.57
2019-03-31T19:50:18.487Z,13.27
2019-03-31T19:53:05.002Z,14.57
2019-03-31T19:55:44.129Z,12.43
2019-03-31T19:58:22.758Z,27.30
2019-03-31T20:01:03.115Z,10.73
2019-03-31T20:03:48.151Z,12.23
2019-03-31T20:06:20.712Z,11.53
2019-03-31T20:08:53.646Z,16.77
2019-03-31T20:11:23.932Z,15.20
2019-03-31T20:14:06.088Z,11.23
2019-03-31T20:16:52.367Z,12.57
2019-03-31T20:19:31.606Z,10.70
2019-03-31T20:22:04.458Z,11.40
2019-03-31T20:24:34.531Z,11.53
2019-03-31T20:27:10.752Z,13.80
2019-03-31T20:29:52.815Z,13.07
2019-03-31T20:32:26.017Z,12.37
2019-03-31T20:34:56.174Z,12.90
2019-03-31T20:37:29.303Z,13.60
2019-03-31T20:40:15.523Z,21.23
2019-03-31T20:43:02.027Z,13.93
2019-03-31T20:45:30.528Z,15.83
2019-03-31T20:47:58.915Z,14.60
2019-03-31T20:50:27.434Z,11.90
2019-03-31T20:52:55.805Z,29.20
2019-03-31T20:55:24.327Z,34.20
2019-03-31T20:57:52.744Z,11.60
2019-03-31T21:00:21.289Z,9.77
2019-03-31T21:02:49.766Z,18.47
2019-03-31T21:05:18.325Z,17.77
2019-03-31T21:07:46.787Z,10.83
2019-03-31T21:10:15.215Z,12.43
2019-03-31T21:12:43.678Z,8.00
2019-03-31T21:15:12.142Z,13.07
2019-03-31T21:17:40.547Z,10.10
2019-03-31T21:20:09.147Z,10.87
2019-03-31T21:22:37.564Z,9.70
2019-03-31T21:25:07.000Z,11.10
2019-03-31T21:27:35.414Z,14.17
2019-03-31T21:30:05.286Z,12.37
2019-03-31T21:32:33.682Z,11.20
2019-03-31T21:35:02.186Z,9.63
2019-03-31T21:37:30.583Z,15.53
2019-03-31T21:39:58.997Z,12.90
2019-03-31T21:42:27.457Z,11.20
2019-03-31T21:44:55.943Z,11.00
2019-03-31T21:47:24.343Z,12.00
2019-03-31T21:49:52.762Z,12.23
2019-03-31T21:52:21.202Z,14.60
2019-03-31T21:54:49.679Z,9.93
2019-03-31T21:57:18.108Z,14.00
2019-03-31T21:59:46.671Z,13.13
2019-03-31T22:02:15.165Z,10.00
2019-03-31T22:04:43.668Z,9.50
2019-03-31T22:07:12.073Z,19.83
2019-03-31T22:09:40.496Z,10.90
2019-03-31T22:12:09.024Z,8.53
2019-03-31T22:14:37.586Z,11.87
2019-03-31T22:17:06.024Z,10.20
2019-03-31T22:19:34.461Z,21.73
2019-03-31T22:22:02.940Z,17.97
2019-03-31T22:24:31.298Z,9.30
2019-03-31T22:26:59.736Z,11.90
2019-03-31T22:29:28.158Z,12.00
2019-03-31T22:31:56.568Z,10.77
2019-03-31T22:34:25.049Z,13.93
2019-03-31T22:36:53.447Z,9.83
2019-03-31T22:39:21.908Z,11.83
2019-03-31T22:41:50.314Z,13.67
2019-03-31T22:44:18.760Z,10.60
2019-03-31T22:46:54.234Z,12.17
2019-03-31T22:49:17.465Z,8.17
2019-03-31T22:51:45.921Z,13.87
2019-03-31T22:54:14.301Z,7.70
2019-03-31T22:56:42.741Z,12.27
2019-03-31T22:59:11.249Z,12.27
2019-03-31T23:01:39.643Z,11.53
2019-03-31T23:04:08.150Z,16.53
2019-03-31T23:06:36.557Z,11.33
2019-03-31T23:09:06.756Z,13.23
2019-03-31T23:11:35.285Z,8.23
2019-03-31T23:14:03.918Z,13.63
2019-03-31T23:16:32.247Z,10.73
2019-03-31T23:19:00.663Z,12.57
2019-03-31T23:21:29.068Z,12.83
2019-03-31T23:23:57.472Z,7.57
2019-03-31T23:26:25.953Z,9.33
2019-03-31T23:28:54.376Z,9.20
2019-03-31T23:31:22.788Z,12.33
2019-03-31T23:33:51.249Z,10.40
2019-03-31T23:36:19.648Z,9.83
2019-03-31T23:38:48.076Z,14.70
2019-03-31T23:41:16.476Z,6.67
2019-03-31T23:43:44.944Z,14.97
2019-03-31T23:46:13.398Z,9.60
2019-03-31T23:48:41.781Z,13.20
2019-03-31T23:51:10.196Z,13.20
2019-03-31T23:53:38.593Z,8.67
2019-03-31T23:56:06.995Z,17.13
2019-03-31T23:58:35.418Z,11.07
